Terminal Aerodrome Forecast
Issued by NWS

Home | Current Version | Previous Version | Text Only | Print | Product List | Glossary On
Versions: 1 2 3 4 5 6 7 8 9 10 11 12 13 14 15 16 17 18 19 20 21 22 23 24
255
FTUS41 KPBZ 300538
TAFBVI
TAF
KBVI 300538Z 3006/3106 00000KT P6SM BKN250
     FM300900 00000KT 3SM BR BKN050
     FM301400 16003KT P6SM VCSH BKN050
     FM301800 19004KT P6SM -SHRA VCTS BKN050CB
     FM302200 20004KT P6SM VCSH BKN070
      AMD NOT SKED=

USA.gov is the U.S. government's official web portal to all federal, state and local government web resources and services.